createdAt,value
2023-03-24T00:00:20.671Z,7.63
2023-03-24T00:02:56.641Z,12.25
2023-03-24T00:05:24.052Z,10.60
2023-03-24T00:10:22.817Z,13.25
2023-03-24T00:12:50.590Z,8.48
2023-03-24T00:15:21.199Z,3.65
2023-03-24T00:17:50.663Z,8.55
2023-03-24T00:20:20.511Z,9.77
2023-03-24T00:22:50.967Z,7.60
2023-03-24T00:25:20.340Z,7.70
2023-03-24T00:27:49.016Z,11.50
2023-03-24T00:30:17.405Z,8.52
2023-03-24T00:32:46.410Z,8.43
2023-03-24T00:35:16.440Z,6.15
2023-03-24T00:37:44.714Z,8.38
2023-03-24T00:40:16.627Z,8.98
2023-03-24T00:42:45.985Z,12.68
2023-03-24T00:45:16.049Z,11.82
2023-03-24T00:47:44.863Z,9.40
2023-03-24T00:50:17.961Z,9.80
2023-03-24T00:52:48.347Z,9.38
2023-03-24T00:55:16.046Z,8.57
2023-03-24T00:57:50.956Z,13.90
2023-03-24T01:00:21.521Z,11.10
2023-03-24T01:02:53.712Z,6.97
2023-03-24T01:05:22.344Z,8.40
2023-03-24T01:07:52.307Z,6.60
2023-03-24T01:10:21.887Z,6.85
2023-03-24T01:12:48.973Z,11.57
2023-03-24T01:15:18.669Z,8.43
2023-03-24T01:17:47.287Z,9.60
2023-03-24T01:20:14.236Z,10.93
2023-03-24T01:22:45.031Z,8.38
2023-03-24T01:25:16.456Z,11.35
2023-03-24T01:27:44.397Z,7.85
2023-03-24T01:30:14.632Z,8.82
2023-03-24T01:32:41.906Z,6.28
2023-03-24T01:35:08.968Z,6.43
2023-03-24T01:37:35.956Z,2.97
2023-03-24T01:40:06.784Z,13.85
2023-03-24T01:42:33.529Z,11.90
2023-03-24T01:45:21.987Z,12.70
2023-03-24T01:47:49.375Z,9.93
2023-03-24T01:50:16.211Z,6.13
2023-03-24T01:52:43.186Z,6.97
2023-03-24T01:55:16.155Z,12.57
2023-03-24T01:57:47.816Z,4.40
2023-03-24T02:00:18.254Z,10.55
2023-03-24T02:02:49.606Z,10.10
2023-03-24T02:05:17.734Z,3.58
2023-03-24T02:07:53.880Z,7.82
2023-03-24T02:10:23.444Z,9.45
2023-03-24T02:12:50.447Z,8.05
2023-03-24T02:15:19.406Z,8.95
2023-03-24T02:18:01.405Z,5.68
2023-03-24T02:20:43.543Z,10.57
2023-03-24T02:23:41.002Z,8.80
2023-03-24T02:26:32.040Z,8.10
2023-03-24T02:29:20.561Z,11.50
2023-03-24T02:32:17.807Z,12.48
2023-03-24T02:35:03.368Z,12.73
2023-03-24T02:37:39.157Z,12.43
2023-03-24T02:40:27.468Z,9.40
2023-03-24T02:43:17.307Z,6.68
2023-03-24T02:45:50.374Z,7.80
2023-03-24T02:48:32.702Z,8.57
2023-03-24T02:51:27.698Z,9.80
2023-03-24T02:54:16.304Z,6.75
2023-03-24T02:56:51.993Z,9.07
2023-03-24T02:59:31.993Z,11.65
2023-03-24T03:02:07.451Z,8.05
2023-03-24T03:04:46.578Z,7.00
2023-03-24T03:07:16.943Z,8.93
2023-03-24T03:10:00.112Z,7.40
2023-03-24T03:12:31.719Z,11.95
2023-03-24T03:15:06.484Z,12.70
2023-03-24T03:17:38.811Z,10.68
2023-03-24T03:22:49.745Z,7.63
2023-03-24T03:25:22.885Z,7.95
2023-03-24T03:27:53.106Z,10.82
2023-03-24T03:30:30.600Z,5.60
2023-03-24T03:33:04.179Z,8.93
2023-03-24T03:35:37.733Z,7.97
2023-03-24T03:38:07.430Z,13.25
2023-03-24T03:40:41.981Z,5.80
2023-03-24T03:43:09.187Z,9.95
2023-03-24T03:45:35.878Z,5.05
2023-03-24T03:48:02.596Z,3.67
2023-03-24T03:50:29.534Z,6.78
2023-03-24T03:52:57.640Z,9.73
2023-03-24T03:55:24.457Z,9.75
2023-03-24T03:57:51.315Z,7.00
2023-03-24T04:00:20.570Z,6.82
2023-03-24T04:03:17.733Z,13.93
2023-03-24T04:06:27.926Z,16.58
2023-03-24T04:09:37.411Z,13.02
2023-03-24T04:12:34.328Z,12.77
2023-03-24T04:15:08.093Z,17.33
2023-03-24T04:17:50.019Z,8.90
2023-03-24T04:20:24.337Z,9.07
2023-03-24T04:23:14.582Z,10.27
2023-03-24T04:26:01.585Z,16.70
2023-03-24T04:28:48.044Z,7.20
2023-03-24T04:31:37.852Z,12.23
2023-03-24T04:34:20.852Z,10.35
2023-03-24T04:36:50.466Z,8.80
2023-03-24T04:39:28.120Z,17.30
2023-03-24T04:41:58.529Z,17.67
2023-03-24T04:44:26.623Z,11.52
2023-03-24T04:46:56.925Z,21.88
2023-03-24T04:49:27.330Z,17.50
2023-03-24T04:51:55.131Z,17.38
2023-03-24T04:54:23.332Z,17.77
2023-03-24T04:56:59.503Z,10.65
2023-03-24T04:59:26.226Z,12.40
2023-03-24T05:01:52.977Z,14.35
2023-03-24T05:04:22.784Z,15.88
2023-03-24T05:06:50.290Z,8.77
2023-03-24T05:09:24.878Z,12.35
2023-03-24T05:11:52.132Z,13.00
2023-03-24T05:14:19.010Z,12.43
2023-03-24T05:16:45.734Z,12.15
2023-03-24T05:19:12.958Z,12.10
2023-03-24T05:21:39.696Z,15.30
2023-03-24T05:24:06.905Z,13.95
2023-03-24T05:26:33.699Z,15.48
2023-03-24T05:29:01.154Z,16.42
2023-03-24T05:31:27.863Z,11.98
2023-03-24T05:33:55.652Z,14.57
2023-03-24T05:36:22.323Z,8.00
2023-03-24T05:38:49.045Z,13.40
2023-03-24T05:41:16.143Z,11.85
2023-03-24T05:43:42.760Z,8.02
2023-03-24T05:46:09.411Z,12.90
2023-03-24T05:48:36.211Z,8.93
2023-03-24T05:51:02.940Z,13.10
2023-03-24T05:53:29.608Z,7.78
2023-03-24T05:55:58.735Z,13.00
2023-03-24T05:58:25.526Z,16.05
2023-03-24T06:00:52.200Z,14.43
2023-03-24T06:03:19.078Z,14.48
2023-03-24T06:05:48.165Z,10.65
2023-03-24T06:08:14.857Z,18.40
2023-03-24T06:10:41.460Z,18.23
2023-03-24T06:13:09.441Z,9.65
2023-03-24T06:15:39.628Z,24.77
2023-03-24T06:18:07.951Z,16.25
2023-03-24T06:20:36.135Z,11.07
2023-03-24T06:23:03.028Z,17.27
2023-03-24T06:25:30.075Z,16.52
2023-03-24T06:27:56.854Z,14.77
2023-03-24T06:30:23.656Z,18.52
2023-03-24T06:32:50.420Z,22.60
2023-03-24T06:35:17.435Z,18.27
2023-03-24T06:37:44.971Z,15.18
2023-03-24T06:40:14.768Z,13.95
2023-03-24T06:42:41.568Z,11.48
2023-03-24T06:45:09.847Z,9.27
2023-03-24T06:47:37.099Z,10.23
2023-03-24T06:50:05.644Z,17.20
2023-03-24T06:52:32.296Z,8.55
2023-03-24T06:54:59.160Z,15.68
2023-03-24T06:57:26.097Z,11.05
2023-03-24T06:59:53.414Z,17.60
2023-03-24T07:02:20.466Z,15.35
2023-03-24T07:04:47.704Z,14.43
2023-03-24T07:07:44.889Z,12.27
2023-03-24T07:10:01.310Z,12.18
2023-03-24T07:12:28.415Z,16.15
2023-03-24T07:14:56.100Z,17.42
2023-03-24T07:17:24.254Z,12.38
2023-03-24T07:19:51.520Z,14.75
2023-03-24T07:22:18.255Z,14.48
2023-03-24T07:24:44.888Z,22.83
2023-03-24T07:27:11.917Z,11.27
2023-03-24T07:29:38.497Z,19.55
2023-03-24T07:32:05.257Z,13.23
2023-03-24T07:34:32.273Z,13.73
2023-03-24T07:37:00.706Z,18.73
2023-03-24T07:39:28.706Z,16.90
2023-03-24T07:41:55.350Z,16.15
2023-03-24T07:44:22.790Z,10.45
2023-03-24T07:46:49.617Z,14.75
2023-03-24T07:49:19.887Z,12.75
2023-03-24T07:51:46.932Z,15.57
2023-03-24T07:54:13.565Z,10.90
2023-03-24T07:56:40.656Z,12.48
2023-03-24T07:59:09.780Z,10.55
2023-03-24T08:01:38.750Z,14.32
2023-03-24T08:04:06.903Z,17.35
2023-03-24T08:06:34.845Z,16.33
2023-03-24T08:09:01.785Z,13.55
2023-03-24T08:11:28.558Z,12.80
2023-03-24T08:13:55.289Z,18.48
2023-03-24T08:16:22.141Z,8.48
2023-03-24T08:18:50.722Z,14.20
2023-03-24T08:21:17.391Z,15.05
2023-03-24T08:23:44.371Z,9.27
2023-03-24T08:26:12.039Z,15.82
2023-03-24T08:28:39.206Z,9.48
2023-03-24T08:31:06.210Z,16.48
2023-03-24T08:33:33.278Z,11.13
2023-03-24T08:36:01.017Z,9.15
2023-03-24T08:38:31.193Z,13.95
2023-03-24T08:41:06.908Z,14.05
2023-03-24T08:43:35.587Z,7.82
2023-03-24T08:46:03.009Z,13.45
2023-03-24T08:48:30.644Z,17.70
2023-03-24T08:50:58.337Z,20.17
2023-03-24T08:53:25.070Z,18.13
2023-03-24T08:55:52.525Z,15.75
2023-03-24T08:58:21.009Z,13.40
2023-03-24T09:00:48.978Z,13.55
2023-03-24T09:03:22.475Z,10.50
2023-03-24T09:05:50.162Z,13.02
2023-03-24T09:08:18.538Z,18.48
2023-03-24T09:10:47.133Z,14.60
2023-03-24T09:13:14.205Z,12.00
2023-03-24T09:15:50.347Z,16.20
2023-03-24T09:18:18.799Z,11.65
2023-03-24T09:20:46.853Z,18.27
2023-03-24T09:23:14.051Z,18.92
2023-03-24T09:25:40.919Z,22.65
2023-03-24T09:28:08.749Z,10.95
2023-03-24T09:30:36.198Z,9.80
2023-03-24T09:33:04.082Z,16.48
2023-03-24T09:35:30.913Z,13.73
2023-03-24T09:37:57.823Z,10.38
2023-03-24T09:40:29.029Z,10.30
2023-03-24T09:43:27.484Z,17.60
2023-03-24T09:45:57.616Z,10.60
2023-03-24T09:48:43.580Z,13.07
2023-03-24T09:51:31.543Z,11.98
2023-03-24T09:54:07.862Z,10.85
2023-03-24T09:56:38.216Z,9.35
2023-03-24T09:59:10.926Z,10.80
2023-03-24T10:01:37.657Z,9.98
2023-03-24T10:04:05.270Z,10.27
2023-03-24T10:06:39.994Z,11.27
2023-03-24T10:09:13.236Z,10.18
2023-03-24T10:11:51.944Z,7.00
2023-03-24T10:14:38.298Z,5.95
2023-03-24T10:17:28.930Z,9.40
2023-03-24T10:20:03.572Z,10.02
2023-03-24T10:22:55.094Z,8.27
2023-03-24T10:25:42.301Z,8.73
2023-03-24T10:28:20.576Z,7.88
2023-03-24T10:30:49.545Z,8.55
2023-03-24T10:33:16.471Z,9.15
2023-03-24T10:35:51.831Z,9.93
2023-03-24T10:38:21.424Z,4.05
2023-03-24T10:40:52.088Z,7.68
2023-03-24T10:43:19.623Z,5.40
2023-03-24T10:45:52.627Z,5.32
2023-03-24T10:48:42.322Z,6.53
2023-03-24T10:51:32.186Z,8.85
2023-03-24T10:54:15.655Z,7.75
2023-03-24T10:56:46.197Z,8.25
2023-03-24T10:59:47.238Z,6.30
2023-03-24T11:02:33.656Z,9.00
2023-03-24T11:05:13.202Z,7.00
2023-03-24T11:07:42.792Z,4.55
2023-03-24T11:10:09.369Z,10.40
2023-03-24T11:12:40.484Z,7.25
2023-03-24T11:15:23.005Z,8.32
2023-03-24T11:18:06.589Z,9.68
2023-03-24T11:20:35.881Z,4.72
2023-03-24T11:23:32.978Z,8.55
2023-03-24T11:26:05.872Z,9.63
2023-03-24T11:28:39.076Z,6.70
2023-03-24T11:31:09.226Z,11.00
2023-03-24T11:33:43.794Z,9.65
2023-03-24T11:36:30.635Z,7.13
2023-03-24T11:39:12.160Z,4.68
2023-03-24T11:41:43.119Z,6.85
2023-03-24T11:44:24.440Z,4.88
2023-03-24T11:46:57.189Z,6.73
2023-03-24T11:49:30.460Z,5.25
2023-03-24T11:51:57.813Z,4.78
2023-03-24T11:54:32.494Z,4.32
2023-03-24T11:57:08.099Z,4.50
2023-03-24T11:59:40.362Z,5.97
2023-03-24T12:05:10.794Z,5.03
2023-03-24T12:08:16.608Z,6.82
2023-03-24T12:10:52.816Z,10.02
2023-03-24T12:16:05.110Z,5.43
2023-03-24T12:18:48.164Z,13.68
2023-03-24T12:21:35.913Z,3.05
2023-03-24T12:24:23.221Z,6.97
2023-03-24T12:26:55.510Z,7.10
2023-03-24T12:29:57.399Z,5.78
2023-03-24T12:32:52.682Z,4.07
2023-03-24T12:35:55.771Z,6.13
2023-03-24T12:38:34.598Z,5.72
2023-03-24T12:41:18.182Z,7.40
2023-03-24T12:43:54.773Z,5.47
2023-03-24T12:46:47.645Z,6.32
2023-03-24T12:49:39.919Z,2.33
2023-03-24T12:52:35.990Z,6.90
2023-03-24T12:55:18.039Z,4.68
2023-03-24T12:57:51.661Z,5.28
2023-03-24T13:00:23.820Z,3.88
2023-03-24T13:02:58.767Z,8.20
2023-03-24T13:05:38.387Z,4.78
2023-03-24T13:08:16.532Z,7.50
2023-03-24T13:10:47.313Z,4.18
2023-03-24T13:13:37.582Z,2.47
2023-03-24T13:16:11.325Z,2.42
2023-03-24T13:18:44.431Z,5.22
2023-03-24T13:21:16.133Z,4.28
2023-03-24T13:24:01.202Z,6.70
2023-03-24T13:26:47.686Z,2.83
2023-03-24T13:29:47.438Z,3.63
2023-03-24T13:32:24.571Z,2.88
2023-03-24T13:35:12.637Z,8.25
2023-03-24T13:37:43.485Z,5.43
2023-03-24T13:40:26.212Z,4.00
2023-03-24T13:43:18.876Z,9.73
2023-03-24T13:45:51.724Z,2.60
2023-03-24T13:48:42.479Z,5.60
2023-03-24T13:51:25.303Z,6.78
2023-03-24T13:53:56.856Z,3.75
2023-03-24T13:56:41.374Z,3.60
2023-03-24T13:59:29.105Z,3.88
2023-03-24T14:02:23.302Z,2.63
2023-03-24T14:05:02.002Z,4.75
2023-03-24T14:07:41.662Z,3.80
2023-03-24T14:10:14.049Z,3.92
2023-03-24T14:13:24.366Z,4.88
2023-03-24T14:15:58.352Z,1.85
2023-03-24T14:18:25.361Z,4.53
2023-03-24T14:21:07.161Z,14.90
2023-03-24T14:23:51.733Z,3.70
2023-03-24T14:26:21.091Z,3.03
2023-03-24T14:28:52.961Z,2.40
2023-03-24T14:31:29.213Z,1.77
2023-03-24T14:34:14.131Z,4.07
2023-03-24T14:36:45.520Z,5.53
2023-03-24T14:39:24.902Z,4.50
2023-03-24T14:41:52.737Z,3.08
2023-03-24T14:44:49.436Z,2.78
2023-03-24T14:47:28.487Z,2.38
2023-03-24T14:49:58.448Z,2.15
2023-03-24T14:52:39.671Z,1.17
2023-03-24T14:55:12.582Z,1.92
2023-03-24T14:57:42.026Z,2.35
2023-03-24T15:00:33.846Z,4.53
2023-03-24T15:03:00.554Z,1.67
2023-03-24T15:05:31.165Z,4.20
2023-03-24T15:08:21.466Z,0.70
2023-03-24T15:10:55.570Z,2.92
2023-03-24T15:13:32.994Z,0.85
2023-03-24T15:16:03.135Z,7.82
2023-03-24T15:18:30.373Z,1.63
2023-03-24T15:20:57.632Z,1.75
2023-03-24T15:23:28.241Z,1.35
2023-03-24T15:25:56.272Z,5.10
2023-03-24T15:28:30.859Z,2.92
2023-03-24T15:30:59.522Z,3.95
2023-03-24T15:33:26.300Z,3.75
2023-03-24T15:35:58.411Z,1.50
2023-03-24T15:38:32.793Z,4.03
2023-03-24T15:41:07.893Z,2.63
2023-03-24T15:43:45.091Z,1.48
2023-03-24T15:46:30.904Z,3.53
2023-03-24T15:49:00.161Z,0.80
2023-03-24T15:51:50.074Z,1.85
2023-03-24T15:54:21.345Z,2.85
2023-03-24T15:57:02.188Z,0.73
2023-03-24T15:59:37.060Z,1.00
2023-03-24T16:02:11.953Z,0.60
2023-03-24T16:04:41.274Z,1.10
2023-03-24T16:07:23.974Z,1.67
2023-03-24T16:09:58.250Z,0.75
2023-03-24T16:12:25.390Z,4.65
2023-03-24T16:14:52.039Z,1.25
2023-03-24T16:17:18.708Z,2.58
2023-03-24T16:19:45.456Z,2.30
2023-03-24T16:22:12.607Z,2.58
2023-03-24T16:24:39.219Z,1.98
2023-03-24T16:27:05.988Z,2.17
2023-03-24T16:29:32.679Z,4.57
2023-03-24T16:32:00.130Z,1.90
2023-03-24T16:34:26.788Z,4.07
2023-03-24T16:36:56.600Z,2.40
2023-03-24T16:39:28.401Z,1.67
2023-03-24T16:41:56.440Z,3.97
2023-03-24T16:44:23.742Z,3.30
2023-03-24T16:46:53.894Z,3.42
2023-03-24T16:49:24.562Z,5.60
2023-03-24T16:51:52.899Z,2.42
2023-03-24T16:54:21.192Z,0.82
2023-03-24T16:56:48.366Z,2.60
2023-03-24T16:59:16.052Z,3.63
2023-03-24T17:01:46.034Z,1.10
2023-03-24T17:04:19.333Z,1.42
2023-03-24T17:06:53.431Z,1.67
2023-03-24T17:09:21.674Z,2.20
2023-03-24T17:11:52.344Z,3.03
2023-03-24T17:14:19.152Z,2.25
2023-03-24T17:16:49.132Z,1.20
2023-03-24T17:19:18.458Z,2.08
2023-03-24T17:21:54.702Z,3.05
2023-03-24T17:24:21.681Z,3.60
2023-03-24T17:26:48.385Z,1.58
2023-03-24T17:29:15.509Z,2.70
2023-03-24T17:31:45.500Z,1.45
2023-03-24T17:34:21.530Z,2.85
2023-03-24T17:36:50.238Z,2.75
2023-03-24T17:39:18.758Z,3.15
2023-03-24T17:41:45.678Z,6.28
2023-03-24T17:44:13.498Z,3.47
2023-03-24T17:46:40.163Z,7.20
2023-03-24T17:49:06.976Z,4.60
2023-03-24T17:51:33.834Z,1.33
2023-03-24T17:54:00.813Z,1.80
2023-03-24T17:56:27.584Z,2.85
2023-03-24T17:58:55.243Z,4.38
2023-03-24T18:01:23.829Z,1.80
2023-03-24T18:03:50.911Z,3.63
2023-03-24T18:06:17.691Z,1.80
2023-03-24T18:08:44.976Z,5.82
2023-03-24T18:11:14.591Z,5.22
2023-03-24T18:13:42.468Z,1.40
2023-03-24T18:16:20.575Z,0.65
2023-03-24T18:18:48.619Z,1.52
2023-03-24T18:21:15.534Z,2.97
2023-03-24T18:23:42.365Z,3.72
2023-03-24T18:26:09.336Z,2.83
2023-03-24T18:28:38.013Z,3.80
2023-03-24T18:31:13.361Z,4.97
2023-03-24T18:33:42.888Z,6.53
2023-03-24T18:36:10.905Z,3.30
2023-03-24T18:38:37.757Z,4.93
2023-03-24T18:41:06.557Z,5.20
2023-03-24T18:43:37.622Z,3.90
2023-03-24T18:46:05.705Z,3.47
2023-03-24T18:48:32.486Z,1.63
2023-03-24T18:50:59.301Z,4.90
2023-03-24T18:53:26.014Z,4.82
2023-03-24T18:55:53.799Z,2.47
2023-03-24T18:58:20.503Z,4.88
2023-03-24T19:00:49.562Z,4.93
2023-03-24T19:03:17.179Z,1.85
2023-03-24T19:05:43.993Z,3.53
2023-03-24T19:08:14.798Z,2.45
2023-03-24T19:10:43.174Z,3.72
2023-03-24T19:13:12.075Z,4.78
2023-03-24T19:15:39.562Z,5.07
2023-03-24T19:18:06.446Z,5.65
2023-03-24T19:20:35.256Z,2.33
2023-03-24T19:23:02.029Z,5.55
2023-03-24T19:25:28.721Z,2.15
2023-03-24T19:27:55.523Z,7.40
2023-03-24T19:30:22.675Z,3.10
2023-03-24T19:32:49.498Z,5.00
2023-03-24T19:35:16.249Z,4.90
2023-03-24T19:37:42.985Z,8.25
2023-03-24T19:40:11.966Z,4.55
2023-03-24T19:42:41.938Z,4.60
2023-03-24T19:45:10.019Z,6.35
2023-03-24T19:47:36.952Z,6.13
2023-03-24T19:50:07.976Z,9.35
2023-03-24T19:52:35.516Z,5.15
2023-03-24T19:55:02.912Z,6.78
2023-03-24T19:57:31.886Z,3.65
2023-03-24T19:59:59.276Z,8.07
2023-03-24T20:02:26.308Z,5.95
2023-03-24T20:04:55.226Z,8.30
2023-03-24T20:07:23.333Z,2.88
2023-03-24T20:09:50.844Z,3.25
2023-03-24T20:12:17.516Z,7.82
2023-03-24T20:14:44.539Z,4.68
2023-03-24T20:17:19.373Z,8.15
2023-03-24T20:19:48.065Z,5.32
2023-03-24T20:22:15.677Z,8.80
2023-03-24T20:24:44.458Z,4.88
2023-03-24T20:27:11.403Z,6.18
2023-03-24T20:29:39.718Z,3.67
2023-03-24T20:32:08.237Z,5.80
2023-03-24T20:34:34.932Z,5.78
2023-03-24T20:37:01.611Z,5.55
2023-03-24T20:39:29.356Z,8.00
2023-03-24T20:41:55.995Z,6.57
2023-03-24T20:44:22.819Z,6.18
2023-03-24T20:46:49.520Z,4.35
2023-03-24T20:49:17.608Z,6.05
2023-03-24T20:51:45.693Z,5.32
2023-03-24T20:54:12.393Z,11.57
2023-03-24T20:56:39.049Z,7.65
2023-03-24T20:59:07.464Z,9.45
2023-03-24T21:01:36.142Z,9.50
2023-03-24T21:04:09.077Z,9.80
2023-03-24T21:06:40.351Z,4.80
2023-03-24T21:09:07.220Z,4.93
2023-03-24T21:11:34.539Z,4.85
2023-03-24T21:14:02.721Z,5.63
2023-03-24T21:16:33.890Z,6.63
2023-03-24T21:19:01.941Z,4.70
2023-03-24T21:21:29.396Z,2.53
2023-03-24T21:23:57.696Z,5.50
2023-03-24T21:26:25.330Z,3.30
2023-03-24T21:28:53.366Z,12.35
2023-03-24T21:31:28.159Z,3.13
2023-03-24T21:33:56.563Z,8.85
2023-03-24T21:36:25.545Z,6.38
2023-03-24T21:38:54.072Z,8.27
2023-03-24T21:41:22.998Z,8.38
2023-03-24T21:43:54.569Z,8.23
2023-03-24T21:46:22.328Z,5.63
2023-03-24T21:48:55.589Z,2.53
2023-03-24T21:51:30.776Z,6.43
2023-03-24T21:54:03.675Z,3.60
2023-03-24T21:56:32.865Z,4.35
2023-03-24T21:59:00.271Z,4.82
2023-03-24T22:01:27.292Z,5.50
2023-03-24T22:03:59.005Z,6.88
2023-03-24T22:06:29.445Z,3.50
2023-03-24T22:08:58.632Z,3.78
2023-03-24T22:11:25.899Z,4.72
2023-03-24T22:13:52.719Z,4.78
2023-03-24T22:16:19.412Z,3.03
2023-03-24T22:18:47.355Z,3.55
2023-03-24T22:21:14.794Z,2.60
2023-03-24T22:23:43.024Z,3.20
2023-03-24T22:26:15.480Z,4.22
2023-03-24T22:31:13.140Z,5.53
2023-03-24T22:33:41.192Z,9.40
2023-03-24T22:36:09.248Z,4.93
2023-03-24T22:38:38.005Z,3.35
2023-03-24T22:41:07.392Z,9.30
2023-03-24T22:43:35.363Z,7.00
2023-03-24T22:46:02.519Z,3.17
2023-03-24T22:48:29.244Z,6.13
2023-03-24T22:50:56.196Z,7.45
2023-03-24T22:53:22.986Z,3.60
2023-03-24T22:55:50.057Z,5.35
2023-03-24T22:58:17.120Z,4.30
2023-03-24T23:00:47.218Z,3.80
2023-03-24T23:03:14.039Z,4.72
2023-03-24T23:05:45.743Z,4.30
2023-03-24T23:08:14.530Z,5.72
2023-03-24T23:10:43.381Z,2.80
2023-03-24T23:13:10.769Z,4.10
2023-03-24T23:15:38.895Z,2.72
2023-03-24T23:18:05.728Z,5.90
2023-03-24T23:20:33.077Z,8.77
2023-03-24T23:23:01.408Z,7.28
2023-03-24T23:25:31.150Z,3.72
2023-03-24T23:27:58.684Z,7.57
2023-03-24T23:30:25.773Z,5.50
2023-03-24T23:32:53.150Z,7.25
2023-03-24T23:35:20.346Z,4.57
2023-03-24T23:37:47.011Z,5.18
2023-03-24T23:40:14.923Z,7.60
2023-03-24T23:42:44.889Z,4.80
2023-03-24T23:45:14.732Z,4.38
2023-03-24T23:47:49.920Z,7.88
2023-03-24T23:50:20.586Z,11.52
2023-03-24T23:52:47.805Z,5.18
2023-03-24T23:55:17.872Z,7.07
2023-03-24T23:57:45.499Z,7.35
